European Highlander — C6SN6 — position and weather

sailwx.info

Track history (hours):
 
Tides and Currents Weather Stations Pressure Air Temp Water Temp Dewpoint Dewpoint Depression Visibility Wind Speed Wind Dir Waves Ship Positions

European Highlander

Operator: P&O Irish Sea Ltd

Last reported at 2019-Jan-23 22:35 UTC. Time now 2019-Jan-23 23:06 UTC.
Position N 54°58' W 005°01'.

Length 161 m; draft 5.5 m.

Type: Passenger vessel. MMSI: 311404000.

Date/timePositionNaut miles runAvg speedWind from/ knotsBaromVisibWave heightAir tempDewpointWater temp
2019-Jan-23 22:35N 54°58' W 005°01'0 0.0
2019-Jan-23 22:29N 54°58' W 005°01'0 0.0
2019-Jan-23 21:59N 54°58' W 005°01'5 9.7
2019-Jan-23 21:28N 55°01' W 005°07'818.6
2019-Jan-23 21:01N 54°58' W 005°20'1020.6
2019-Jan-23 20:30N 54°54' W 005°37'713.8
2019-Jan-23 20:00N 54°51' W 005°48'0 0.1
2019-Jan-23 19:30N 54°51' W 005°48'0 0.0
2019-Jan-23 19:00N 54°51' W 005°48'0 0.0
2019-Jan-23 18:30N 54°51' W 005°48'3 6.8
2019-Jan-23 18:00N 54°53' W 005°43'917.2
2019-Jan-23 17:31N 54°57' W 005°30'917.0
2019-Jan-23 17:01N 55°00' W 005°16'814.2
2019-Jan-23 16:27N 54°59' W 005°03'2 3.7
2019-Jan-23 15:59N 54°58' W 005°01'0 0.0
2019-Jan-23 15:30N 54°58' W 005°01'5 9.2
2019-Jan-23 14:58N 55°02' W 005°07'919.0
2019-Jan-23 14:31N 54°58' W 005°20'918.0
2019-Jan-23 14:01N 54°55' W 005°35'816.0
2019-Jan-23 13:30N 54°51' W 005°48'0 0.4
2019-Jan-23 12:55N 54°51' W 005°48'0 0.0
2019-Jan-23 12:30N 54°51' W 005°48'5 9.2
2019-Jan-23 12:00N 54°53' W 005°41'917.8
2019-Jan-23 11:30N 54°57' W 005°27'917.8
2019-Jan-23 11:00N 55°01' W 005°13'713.2
2019-Jan-23 10:30N 54°59' W 005°02'1 2.2
2019-Jan-23 09:59N 54°58' W 005°01'0 0.0
2019-Jan-23 09:29N 54°58' W 005°01'5 9.8
2019-Jan-23 08:57N 55°01' W 005°07'716.3
2019-Jan-23 08:31N 54°59' W 005°19'918.2
2019-Jan-23 08:01N 54°55' W 005°33'918.1
2019-Jan-23 07:31N 54°51' W 005°48'1 1.2
2019-Jan-23 07:00N 54°51' W 005°48'0 0.0
2019-Jan-23 06:30N 54°51' W 005°48'0 0.0
2019-Jan-23 06:00N 54°51' W 005°48'5 9.0
2019-Jan-23 05:30N 54°53' W 005°41'917.4
2019-Jan-23 05:00N 54°57' W 005°28'917.5
2019-Jan-23 04:30N 55°01' W 005°14'713.9
2019-Jan-23 04:00N 54°59' W 005°02'1 1.8
2019-Jan-23 03:24N 54°58' W 005°01'0 0.0
2019-Jan-23 02:42N 54°58' W 005°01'0 0.0
2019-Jan-23 02:12N 54°58' W 005°01'0 0.0
2019-Jan-23 02:00N 54°58' W 005°01'5 8.6
2019-Jan-23 01:25N 55°02' W 005°07'819.8
2019-Jan-23 01:01N 54°58' W 005°20'918.6
2019-Jan-23 00:31N 54°54' W 005°34'816.8
2019-Jan-23 00:01N 54°51' W 005°48'0 0.3
2019-Jan-22 23:29N 54°51' W 005°48'0 0.0
2019-Jan-22 22:59N 54°51' W 005°48'0 0.0
2019-Jan-22 22:29N 54°51' W 005°48'0 0.0
2019-Jan-22 22:01N 54°51' W 005°48'713.7
2019-Jan-22 21:30N 54°54' W 005°37'918.4
2019-Jan-22 21:00N 54°58' W 005°23'917.6
2019-Jan-22 20:30N 55°01' W 005°09'611.4
2019-Jan-22 20:00N 54°58' W 005°01'0 0.0
2019-Jan-22 19:30N 54°58' W 005°01'0 0.0
2019-Jan-22 18:54N 54°58' W 005°01'0 0.4
2019-Jan-22 18:30N 54°58' W 005°01'510.5
2019-Jan-22 18:00N 55°01' W 005°08'816.9
2019-Jan-22 17:30N 54°58' W 005°21'918.1
2019-Jan-22 17:00N 54°54' W 005°36'815.7
2019-Jan-22 16:31N 54°51' W 005°48'0 0.2
2019-Jan-22 15:59N 54°51' W 005°48'0 0.0
2019-Jan-22 15:30N 54°51' W 005°48'5 9.6
2019-Jan-22 15:00N 54°54' W 005°41'917.7
2019-Jan-22 14:30N 54°58' W 005°27'816.6
2019-Jan-22 14:01N 55°01' W 005°14'713.6
2019-Jan-22 13:30N 54°59' W 005°03'1 2.4
2019-Jan-22 12:54N 54°58' W 005°01'0 0.0
2019-Jan-22 12:30N 54°58' W 005°01'510.3
2019-Jan-22 12:00N 55°02' W 005°07'917.9
2019-Jan-22 11:31N 54°58' W 005°21'918.2
2019-Jan-22 11:01N 54°55' W 005°36'814.5
2019-Jan-22 10:28N 54°51' W 005°48'0 0.1
2019-Jan-22 09:58N 54°51' W 005°48'0 0.0
2019-Jan-22 09:30N 54°51' W 005°48'4 7.7
2019-Jan-22 09:00N 54°53' W 005°43'1019.6
2019-Jan-22 08:31N 54°57' W 005°27'1019.9
2019-Jan-22 08:01N 55°01' W 005°11'713.1
2019-Jan-22 07:30N 54°58' W 005°02'1 0.8
2019-Jan-22 06:50N 54°58' W 005°01'0 0.0
2019-Jan-22 06:29N 54°58' W 005°01'0 0.0
2019-Jan-22 06:00N 54°58' W 005°01'5 9.3
2019-Jan-22 05:28N 55°02' W 005°07'816.6
2019-Jan-22 05:00N 54°59' W 005°19'917.9
2019-Jan-22 04:30N 54°55' W 005°33'917.8
2019-Jan-22 04:00N 54°52' W 005°48'1 0.6
2019-Jan-22 02:40N 54°51' W 005°48'0 0.0
2019-Jan-22 02:28N 54°51' W 005°48'0 0.0
2019-Jan-22 01:58N 54°51' W 005°48'3 5.8
2019-Jan-22 01:30N 54°53' W 005°44'1020.4
2019-Jan-22 01:01N 54°57' W 005°29'1020.0
2019-Jan-22 00:30N 55°01' W 005°12'713.0
2019-Jan-22 00:00N 54°58' W 005°02'1 1.4
2019-Jan-21 23:21N 54°58' W 005°01'0 0.0
2019-Jan-21 23:00N 54°58' W 005°01'0 0.0
2019-Jan-21 22:21N 54°58' W 005°01'0 0.0
2019-Jan-21 22:00N 54°58' W 005°01'5 8.6
2019-Jan-21 21:24N 55°01' W 005°07'718.5
2019-Jan-21 21:00N 54°59' W 005°19'1020.1
2019-Jan-21 20:30N 54°54' W 005°35'816.6
2019-Jan-21 20:01N 54°51' W 005°48'0 0.2
2019-Jan-21 19:31N 54°51' W 005°48'0 0.0
2019-Jan-21 19:01N 54°51' W 005°48'0 0.0
2019-Jan-21 18:30N 54°51' W 005°48'510.0
2019-Jan-21 18:00N 54°54' W 005°41'918.7
2019-Jan-21 17:30N 54°58' W 005°26'918.8
2019-Jan-21 17:01N 55°01' W 005°11'713.3
2019-Jan-21 16:30N 54°58' W 005°01'0 0.3
2019-Jan-21 16:00N 54°58' W 005°01'0 0.0
2019-Jan-21 15:30N 54°58' W 005°01'5 9.9
2019-Jan-21 15:00N 55°02' W 005°07'918.0
2019-Jan-21 14:31N 54°58' W 005°21'917.9
2019-Jan-21 14:01N 54°54' W 005°35'815.7
2019-Jan-21 13:30N 54°51' W 005°48'0 0.4
2019-Jan-21 12:56N 54°51' W 005°48'0 0.0
2019-Jan-21 12:29N 54°51' W 005°48'5 9.7
2019-Jan-21 12:00N 54°54' W 005°41'917.8
2019-Jan-21 11:30N 54°57' W 005°28'917.1
2019-Jan-21 11:00N 55°01' W 005°14'713.7
2019-Jan-21 10:30N 54°59' W 005°02'1 2.7
2019-Jan-21 10:00N 54°58' W 005°01'0 0.0
2019-Jan-21 09:30N 54°58' W 005°01'510.4
2019-Jan-21 09:00N 55°02' W 005°07'816.5
2019-Jan-21 08:30N 54°58' W 005°20'918.5
2019-Jan-21 08:00N 54°55' W 005°35'816.4
2019-Jan-21 07:30N 54°51' W 005°48'0 0.2
2019-Jan-21 06:58N 54°51' W 005°48'0 0.0
2019-Jan-21 06:28N 54°51' W 005°48'0 0.0
2019-Jan-21 06:00N 54°51' W 005°48'4 8.4
2019-Jan-21 05:30N 54°53' W 005°42'816.5
2019-Jan-21 05:00N 54°57' W 005°29'816.8
2019-Jan-21 04:30N 55°00' W 005°16'714.0
2019-Jan-21 04:00N 54°59' W 005°03'2 3.5
2019-Jan-21 03:25N 54°58' W 005°01'0 0.0
2019-Jan-21 02:58N 54°58' W 005°01'0 0.0
2019-Jan-21 02:28N 54°58' W 005°01'0 0.0
2019-Jan-21 01:59N 54°58' W 005°01'5 9.0
2019-Jan-21 01:26N 55°02' W 005°06'818.4
2019-Jan-21 01:01N 54°59' W 005°19'918.2
2019-Jan-21 00:31N 54°55' W 005°34'917.3
2019-Jan-21 00:00N 54°52' W 005°47'1 1.8
2019-Jan-20 23:30N 54°51' W 005°48'0 0.0
2019-Jan-20 23:00N 54°51' W 005°48'0 0.0
2019-Jan-20 22:30N 54°51' W 005°48'0 0.0
2019-Jan-20 22:00N 54°51' W 005°48'3 6.8
2019-Jan-20 21:30N 54°53' W 005°43'917.4
2019-Jan-20 21:00N 54°57' W 005°29'816.7
2019-Jan-20 20:30N 54°60' W 005°16'813.7
2019-Jan-20 19:57N 54°59' W 005°03'2 3.9
2019-Jan-20 19:29N 54°58' W 005°01'0 0.0
2019-Jan-20 18:59N 54°58' W 005°01'0 0.1
2019-Jan-20 18:30N 54°58' W 005°01'510.1
2019-Jan-20 18:00N 55°02' W 005°07'816.1
2019-Jan-20 17:30N 54°58' W 005°20'917.4
2019-Jan-20 17:00N 54°55' W 005°33'917.3
2019-Jan-20 16:30N 54°52' W 005°47'1 1.6
2019-Jan-20 15:55N 54°51' W 005°48'0 0.0
2019-Jan-20 15:28N 54°51' W 005°48'3 7.5
2019-Jan-20 15:00N 54°53' W 005°43'917.5
2019-Jan-20 14:30N 54°57' W 005°30'917.0
2019-Jan-20 14:00N 55°00' W 005°16'714.0
2019-Jan-20 13:28N 54°59' W 005°03'2 3.7
2019-Jan-20 12:58N 54°58' W 005°01'0 0.0
2019-Jan-20 12:25N 54°58' W 005°01'0 0.0
2019-Jan-20 11:52N 54°58' W 005°01'0 0.0
2019-Jan-20 11:25N 54°58' W 005°01'0 0.0
2019-Jan-20 10:52N 54°58' W 005°01'0 0.0
2019-Jan-20 10:01N 54°58' W 005°01'0 0.0
2019-Jan-20 09:37N 54°58' W 005°01'0 0.0
2019-Jan-20 09:30N 54°58' W 005°01'5 9.2
2019-Jan-20 08:57N 55°02' W 005°07'716.7
2019-Jan-20 08:30N 54°59' W 005°19'917.7
2019-Jan-20 08:00N 54°55' W 005°33'918.2
2019-Jan-20 07:30N 54°52' W 005°48'1 1.5
2019-Jan-20 06:58N 54°51' W 005°48'0 0.0
2019-Jan-20 06:22N 54°51' W 005°48'0 0.0
2019-Jan-20 05:58N 54°51' W 005°48'0 0.0
2019-Jan-20 05:28N 54°51' W 005°48'0 0.0
2019-Jan-20 04:58N 54°51' W 005°48'0 0.0
2019-Jan-20 04:28N 54°51' W 005°48'0 0.0
2019-Jan-20 03:58N 54°51' W 005°48'0 0.0
2019-Jan-20 03:28N 54°51' W 005°48'0 0.0
2019-Jan-20 02:58N 54°51' W 005°48'0 0.0
2019-Jan-20 02:28N 54°51' W 005°48'0 0.0
2019-Jan-20 01:58N 54°51' W 005°48'0 0.0
2019-Jan-20 01:28N 54°51' W 005°48'0 0.0
2019-Jan-20 00:58N 54°51' W 005°48'0 0.0
2019-Jan-20 00:28N 54°51' W 005°48'0 0.0
2019-Jan-19 23:52N 54°51' W 005°48'0 0.0
2019-Jan-19 23:28N 54°51' W 005°48'0 0.0
2019-Jan-19 22:58N 54°51' W 005°48'0 0.0
2019-Jan-19 22:28N 54°51' W 005°48'0 0.0
2019-Jan-19 21:58N 54°51' W 005°48'1 2.9
2019-Jan-19 21:30N 54°52' W 005°47'918.2
2019-Jan-19 21:00N 54°56' W 005°33'918.1
2019-Jan-19 20:30N 54°60' W 005°19'914.8
2019-Jan-19 19:54N 54°59' W 005°03'2 2.6
2019-Jan-19 19:14N 54°58' W 005°01'0 0.0
2019-Jan-19 18:59N 54°58' W 005°01'0 0.0
2019-Jan-19 18:30N 54°58' W 005°01'5 8.4
2019-Jan-19 17:52N 55°01' W 005°07'616.3
2019-Jan-19 17:31N 54°59' W 005°16'918.1
2019-Jan-19 17:01N 54°55' W 005°31'1018.6
2019-Jan-19 16:30N 54°52' W 005°47'1 2.9
2019-Jan-19 15:59N 54°51' W 005°48'0 0.0
2019-Jan-19 15:29N 54°51' W 005°48'3 5.3
2019-Jan-19 15:00N 54°52' W 005°45'917.7
2019-Jan-19 14:30N 54°56' W 005°31'917.4
2019-Jan-19 14:00N 55°00' W 005°17'814.5
2019-Jan-19 13:26N 54°59' W 005°03'2 3.1
2019-Jan-19 12:55N 54°58' W 005°01'0 0.0
2019-Jan-19 12:30N 54°58' W 005°01'5 8.6
2019-Jan-19 11:55N 55°02' W 005°06'718.0
2019-Jan-19 11:30N 54°59' W 005°18'917.6
2019-Jan-19 11:00N 54°55' W 005°32'917.0
2019-Jan-19 10:30N 54°52' W 005°47'2 3.2
2019-Jan-19 10:00N 54°51' W 005°48'0 0.0
2019-Jan-19 09:30N 54°51' W 005°48'3 5.6
2019-Jan-19 09:00N 54°53' W 005°44'917.7
2019-Jan-19 08:30N 54°56' W 005°30'917.6
2019-Jan-19 08:00N 55°00' W 005°16'814.3
2019-Jan-19 07:28N 54°59' W 005°03'2 2.1
2019-Jan-19 06:36N 54°58' W 005°01'0 0.0
2019-Jan-19 06:03N 54°58' W 005°01'0 0.1
2019-Jan-19 06:00N 54°58' W 005°01'5 9.4
2019-Jan-19 05:29N 55°01' W 005°06'816.0
2019-Jan-19 05:00N 54°59' W 005°19'816.4
2019-Jan-19 04:31N 54°55' W 005°32'917.4
2019-Jan-19 04:00N 54°52' W 005°46'2 3.4
2019-Jan-19 03:29N 54°51' W 005°48'0 0.0
2019-Jan-19 02:59N 54°51' W 005°48'0 0.0
2019-Jan-19 02:29N 54°51' W 005°48'0 0.0
2019-Jan-19 01:59N 54°51' W 005°48'2 5.1
2019-Jan-19 01:30N 54°52' W 005°45'917.6
2019-Jan-19 01:01N 54°57' W 005°31'816.9
2019-Jan-19 00:30N 55°00' W 005°18'914.5
2019-Jan-18 23:55N 54°59' W 005°03'2 3.2
2019-Jan-18 23:23N 54°58' W 005°01'0 0.0
2019-Jan-18 22:59N 54°58' W 005°01'0 0.0
2019-Jan-18 22:29N 54°58' W 005°01'0 0.0
2019-Jan-18 21:59N 54°58' W 005°01'510.7
2019-Jan-18 21:30N 55°02' W 005°07'817.0
2019-Jan-18 21:01N 54°59' W 005°21'917.3
2019-Jan-18 20:30N 54°55' W 005°34'816.8
2019-Jan-18 20:00N 54°51' W 005°48'0 0.6
2019-Jan-18 19:28N 54°51' W 005°48'0 0.0
2019-Jan-18 18:58N 54°51' W 005°48'0 0.0
2019-Jan-18 18:31N 54°51' W 005°48'611.8
2019-Jan-18 18:00N 54°54' W 005°39'1019.3
2019-Jan-18 17:30N 54°58' W 005°24'1020.0
2019-Jan-18 17:00N 55°02' W 005°07'510.7
2019-Jan-18 16:31N 54°58' W 005°01'0 0.0
2019-Jan-18 15:58N 54°58' W 005°01'0 0.0
2019-Jan-18 15:31N 54°58' W 005°01'5 8.1
2019-Jan-18 14:53N 55°02' W 005°07'719.1
2019-Jan-18 14:30N 54°59' W 005°19'1019.7
2019-Jan-18 14:00N 54°55' W 005°34'917.6
2019-Jan-18 13:31N 54°51' W 005°48'0 0.3
2019-Jan-18 13:00N 54°51' W 005°48'0 0.0
2019-Jan-18 12:30N 54°51' W 005°48'612.9
2019-Jan-18 12:00N 54°55' W 005°39'817.0
2019-Jan-18 11:30N 54°60' W 005°27'816.2
2019-Jan-18 11:00N 55°03' W 005°14'815.5
2019-Jan-18 10:30N 54°59' W 005°03'1 2.6
2019-Jan-18 09:58N 54°58' W 005°01'0 0.0
2019-Jan-18 09:29N 54°58' W 005°01'5 9.1
2019-Jan-18 08:55N 55°02' W 005°07'818.3
2019-Jan-18 08:30N 54°59' W 005°19'917.1
2019-Jan-18 08:00N 54°55' W 005°32'918.0
2019-Jan-18 07:30N 54°52' W 005°47'1 2.4
2019-Jan-18 07:00N 54°51' W 005°48'0 0.0
2019-Jan-18 06:30N 54°51' W 005°48'0 0.0
2019-Jan-18 06:00N 54°51' W 005°48'4 7.8
2019-Jan-18 05:30N 54°53' W 005°42'816.8
2019-Jan-18 05:00N 54°57' W 005°30'917.6
2019-Jan-18 04:30N 55°01' W 005°16'714.5
2019-Jan-18 04:00N 54°59' W 005°03'2 4.0
2019-Jan-18 03:30N 54°58' W 005°01'0 0.0
2019-Jan-18 03:00N 54°58' W 005°01'0 0.0
2019-Jan-18 02:27N 54°58' W 005°01'0 0.0
2019-Jan-18 02:01N 54°58' W 005°01'5 9.3
2019-Jan-18 01:28N 55°02' W 005°06'817.5
2019-Jan-18 01:00N 54°59' W 005°20'918.2
2019-Jan-18 00:30N 54°55' W 005°34'917.0
2019-Jan-18 00:00N 54°51' W 005°48'0 0.7
2019-Jan-17 23:30N 54°51' W 005°48'0 0.0
2019-Jan-17 23:00N 54°51' W 005°48'0 0.0
2019-Jan-17 22:30N 54°51' W 005°48'0 0.0
2019-Jan-17 22:00N 54°51' W 005°48'4 8.8
2019-Jan-17 21:30N 54°53' W 005°42'917.2
2019-Jan-17 21:00N 54°57' W 005°28'917.4
2019-Jan-17 20:30N 55°01' W 005°14'712.9
2019-Jan-17 19:58N 54°59' W 005°03'2 2.4
2019-Jan-17 19:18N 54°58' W 005°01'0 0.0
2019-Jan-17 18:36N 54°58' W 005°01'0 0.0
2019-Jan-17 18:26N 54°58' W 005°01'5 9.5
2019-Jan-17 17:54N 55°01' W 005°07'719.2
2019-Jan-17 17:30N 54°59' W 005°19'1020.5
2019-Jan-17 17:00N 54°54' W 005°35'816.1
2019-Jan-17 16:31N 54°51' W 005°48'0 0.1
2019-Jan-17 15:58N 54°51' W 005°48'0 0.0
2019-Jan-17 15:30N 54°51' W 005°48'611.3
2019-Jan-17 15:00N 54°54' W 005°40'917.7
2019-Jan-17 14:31N 54°58' W 005°26'918.2
2019-Jan-17 14:00N 55°01' W 005°11'612.8
2019-Jan-17 13:30N 54°58' W 005°02'0 0.8
2019-Jan-17 12:56N 54°58' W 005°01'0 0.0
2019-Jan-17 12:30N 54°58' W 005°01'5 9.2
2019-Jan-17 11:59N 55°02' W 005°06'920.0
2019-Jan-17 11:30N 54°58' W 005°21'917.7
2019-Jan-17 11:00N 54°54' W 005°36'815.6
2019-Jan-17 10:30N 54°51' W 005°48'0 0.2
2019-Jan-17 10:00N 54°51' W 005°48'0 0.0
2019-Jan-17 09:30N 54°51' W 005°48'611.4
2019-Jan-17 09:00N 54°54' W 005°40'917.9
2019-Jan-17 08:31N 54°58' W 005°26'917.4
2019-Jan-17 08:00N 55°01' W 005°12'713.2
2019-Jan-17 07:30N 54°58' W 005°02'0 0.8
2019-Jan-17 07:00N 54°58' W 005°01'0 0.0
2019-Jan-17 06:30N 54°58' W 005°01'0 0.0
2019-Jan-17 06:01N 54°58' W 005°01'5 9.6
2019-Jan-17 05:29N 55°02' W 005°07'918.6
2019-Jan-17 05:00N 54°59' W 005°21'1019.0
2019-Jan-17 04:30N 54°54' W 005°36'815.4
2019-Jan-17 04:01N 54°51' W 005°48'0 0.0
2019-Jan-17 02:59N 54°51' W 005°48'0 0.0
2019-Jan-17 02:29N 54°51' W 005°48'0 0.0
2019-Jan-17 02:00N 54°51' W 005°48'4 9.2
2019-Jan-17 01:30N 54°53' W 005°41'917.6
2019-Jan-17 01:01N 54°58' W 005°29'917.5
2019-Jan-17 00:30N 55°01' W 005°14'713.4
2019-Jan-17 00:00N 54°59' W 005°03'2 3.1
2019-Jan-16 23:28N 54°58' W 005°01'0 0.0
2019-Jan-16 22:52N 54°58' W 005°01'0 0.0
2019-Jan-16 22:25N 54°58' W 005°01'0 0.0
2019-Jan-16 22:00N 54°58' W 005°01'5 9.4
2019-Jan-16 21:28N 55°02' W 005°07'817.6
2019-Jan-16 21:00N 54°58' W 005°20'917.6
2019-Jan-16 20:30N 54°55' W 005°34'917.2
2019-Jan-16 20:00N 54°52' W 005°48'1 1.5
2019-Jan-16 19:29N 54°51' W 005°48'0 0.0
2019-Jan-16 18:59N 54°51' W 005°48'0 0.0
2019-Jan-16 18:29N 54°51' W 005°48'5 9.6
2019-Jan-16 18:00N 54°53' W 005°41'917.8
2019-Jan-16 17:30N 54°57' W 005°27'917.8
2019-Jan-16 17:00N 55°01' W 005°13'713.7
2019-Jan-16 16:30N 54°58' W 005°02'1 1.7
2019-Jan-16 15:56N 54°58' W 005°01'0 0.0
2019-Jan-16 15:30N 54°58' W 005°01'5 9.5
2019-Jan-16 14:59N 55°02' W 005°06'817.0
2019-Jan-16 14:30N 54°58' W 005°19'918.6
2019-Jan-16 14:00N 54°55' W 005°34'917.2
2019-Jan-16 13:30N 54°51' W 005°48'0 0.3
2019-Jan-16 12:59N 54°51' W 005°48'0 0.0
2019-Jan-16 12:30N 54°51' W 005°48'510.9
2019-Jan-16 12:01N 54°54' W 005°41'917.1
2019-Jan-16 11:31N 54°58' W 005°27'817.0
2019-Jan-16 11:00N 55°01' W 005°13'713.6
2019-Jan-16 10:30N 54°59' W 005°02'1 1.6
2019-Jan-16 09:50N 54°58' W 005°01'0 0.0
2019-Jan-16 09:26N 54°58' W 005°01'510.5
2019-Jan-16 08:58N 55°02' W 005°06'818.2
2019-Jan-16 08:30N 54°58' W 005°20'918.2
2019-Jan-16 08:01N 54°54' W 005°34'917.1
2019-Jan-16 07:31N 54°51' W 005°48'0 0.3
2019-Jan-16 06:58N 54°51' W 005°48'0 0.0
2019-Jan-16 06:28N 54°51' W 005°48'0 0.0
2019-Jan-16 05:59N 54°51' W 005°48'4 8.2
2019-Jan-16 05:31N 54°53' W 005°42'917.6
2019-Jan-16 05:01N 54°57' W 005°29'917.4
2019-Jan-16 04:31N 55°01' W 005°15'713.5
2019-Jan-16 04:00N 54°59' W 005°03'2 3.6
2019-Jan-16 03:28N 54°58' W 005°01'0 0.0
2019-Jan-16 02:58N 54°58' W 005°01'0 0.0
2019-Jan-16 02:25N 54°58' W 005°01'0 0.0
2019-Jan-16 01:59N 54°58' W 005°01'5 9.5
2019-Jan-16 01:28N 55°02' W 005°07'817.5
2019-Jan-16 01:01N 54°58' W 005°19'918.6
2019-Jan-16 00:30N 54°55' W 005°34'917.0
2019-Jan-16 00:00N 54°51' W 005°48'0 0.3
2019-Jan-15 23:28N 54°51' W 005°48'0 0.0
2019-Jan-15 22:58N 54°51' W 005°48'0 0.0
2019-Jan-15 22:28N 54°51' W 005°48'0 0.0
2019-Jan-15 21:58N 54°51' W 005°48'5 9.7
2019-Jan-15 21:30N 54°53' W 005°41'917.4
2019-Jan-15 21:00N 54°57' W 005°28'817.0
2019-Jan-15 20:30N 55°01' W 005°14'713.3
2019-Jan-15 20:00N 54°59' W 005°03'2 2.9
2019-Jan-15 19:25N 54°58' W 005°01'0 0.0
2019-Jan-15 18:49N 54°58' W 005°01'0 0.0
2019-Jan-15 18:30N 54°58' W 005°01'510.0
2019-Jan-15 18:00N 55°02' W 005°06'917.4
2019-Jan-15 17:30N 54°58' W 005°20'917.8
2019-Jan-15 17:00N 54°55' W 005°34'916.9
2019-Jan-15 16:30N 54°51' W 005°48'0 0.4
2019-Jan-15 15:58N 54°51' W 005°48'0 0.0
2019-Jan-15 15:29N 54°51' W 005°48'5 9.9
2019-Jan-15 15:00N 54°53' W 005°41'817.0
2019-Jan-15 14:30N 54°57' W 005°28'917.1
2019-Jan-15 14:00N 55°01' W 005°14'713.6
2019-Jan-15 13:30N 54°59' W 005°03'1 3.0
2019-Jan-15 13:00N 54°58' W 005°01'0 0.0
2019-Jan-15 12:29N 54°58' W 005°01'5 9.8
2019-Jan-15 11:59N 55°02' W 005°06'1020.1
2019-Jan-15 11:31N 54°58' W 005°22'1019.8
2019-Jan-15 11:00N 54°54' W 005°38'713.1
2019-Jan-15 10:30N 54°51' W 005°48'0 0.0
2019-Jan-15 10:00N 54°51' W 005°48'0 0.0
2019-Jan-15 09:31N 54°51' W 005°48'612.3
2019-Jan-15 09:00N 54°54' W 005°39'917.7
2019-Jan-15 08:30N 54°58' W 005°25'917.3
2019-Jan-15 08:00N 55°01' W 005°11'713.4
2019-Jan-15 07:30N 54°58' W 005°01'0 0.1
2019-Jan-15 06:53N 54°58' W 005°01'0 0.0
2019-Jan-15 06:29N 54°58' W 005°01'0 0.0
2019-Jan-15 06:00N 54°58' W 005°01'511.0
2019-Jan-15 05:30N 55°02' W 005°08'918.0
2019-Jan-15 05:00N 54°58' W 005°22'918.1
2019-Jan-15 04:30N 54°54' W 005°36'714.7
2019-Jan-15 04:00N 54°51' W 005°48'0 0.2
2019-Jan-15 03:27N 54°51' W 005°48'0 0.0
2019-Jan-15 02:57N 54°51' W 005°48'0 0.0
2019-Jan-15 02:27N 54°51' W 005°48'0 0.0
2019-Jan-15 02:00N 54°51' W 005°48'510.1
2019-Jan-15 01:30N 54°54' W 005°41'816.8
2019-Jan-15 01:00N 54°57' W 005°27'917.3
2019-Jan-15 00:30N 55°01' W 005°14'713.5
2019-Jan-15 00:00N 54°59' W 005°02'1 1.9
2019-Jan-14 23:18N 54°58' W 005°01'0 0.0
2019-Jan-14 23:00N 54°58' W 005°01'0 0.0
2019-Jan-14 22:30N 54°58' W 005°01'0 0.2
2019-Jan-14 22:00N 54°58' W 005°01'611.5
2019-Jan-14 21:30N 55°02' W 005°09'1020.5
2019-Jan-14 21:01N 54°57' W 005°25'1020.5
2019-Jan-14 20:31N 54°53' W 005°41'5 9.0
2019-Jan-14 20:00N 54°51' W 005°48'0 0.0
2019-Jan-14 19:29N 54°51' W 005°48'0 0.0
2019-Jan-14 18:56N 54°51' W 005°48'0 0.0
2019-Jan-14 18:29N 54°51' W 005°48'1 1.9
2019-Jan-14 18:00N 54°52' W 005°47'1019.8
2019-Jan-14 17:30N 54°56' W 005°32'1020.4
2019-Jan-14 17:00N 55°00' W 005°16'815.6
2019-Jan-14 16:30N 54°59' W 005°03'1 1.9
2019-Jan-14 15:45N 54°58' W 005°01'0 0.0
2019-Jan-14 15:30N 54°58' W 005°01'5 9.9
2019-Jan-14 15:00N 55°01' W 005°06'1019.6
2019-Jan-14 14:30N 54°58' W 005°22'1020.2
2019-Jan-14 14:00N 54°54' W 005°38'612.4
2019-Jan-14 13:30N 54°51' W 005°48'0 0.0
2019-Jan-14 12:59N 54°51' W 005°48'0 0.0
2019-Jan-14 12:31N 54°51' W 005°48'612.7
2019-Jan-14 12:00N 54°54' W 005°38'816.9
2019-Jan-14 11:30N 54°58' W 005°25'917.2
2019-Jan-14 11:00N 55°01' W 005°11'612.8
2019-Jan-14 10:30N 54°58' W 005°02'0 0.7
2019-Jan-14 09:50N 54°58' W 005°01'0 0.2
2019-Jan-14 09:30N 54°58' W 005°01'611.3
2019-Jan-14 09:00N 55°01' W 005°08'917.5
2019-Jan-14 08:31N 54°58' W 005°22'918.0
2019-Jan-14 08:00N 54°54' W 005°37'714.3
2019-Jan-14 07:30N 54°51' W 005°48'0 0.2
2019-Jan-14 06:58N 54°51' W 005°48'0 0.0
2019-Jan-14 06:28N 54°51' W 005°48'0 0.0
2019-Jan-14 05:55N 54°51' W 005°48'2 5.6
2019-Jan-14 05:31N 54°52' W 005°45'1020.2
2019-Jan-14 05:00N 54°57' W 005°30'1019.7
2019-Jan-14 04:30N 55°01' W 005°14'713.5
2019-Jan-14 04:00N 54°59' W 005°03'1 2.4
2019-Jan-14 03:24N 54°58' W 005°01'0 0.0
2019-Jan-14 02:57N 54°58' W 005°01'0 0.0
2019-Jan-14 02:27N 54°58' W 005°01'0 0.1
2019-Jan-14 02:00N 54°58' W 005°01'612.2
2019-Jan-14 01:31N 55°02' W 005°09'816.0
2019-Jan-14 01:00N 54°56' W 005°20'917.8
2019-Jan-14 00:30N 54°53' W 005°35'815.9
2019-Jan-14 00:01N 54°51' W 005°48'0 0.2
2019-Jan-13 23:29N 54°51' W 005°48'0 0.0
2019-Jan-13 22:59N 54°51' W 005°48'  
Track history (hours):
 
Tides and Currents Weather Stations Pressure Air Temp Water Temp Dewpoint Dewpoint Depression Visibility Wind Speed Wind Dir Waves Ship Positions

European Highlander

Operator: P&O Irish Sea Ltd

Last reported at 2019-Jan-23 22:35 UTC. Time now 2019-Jan-23 23:06 UTC.
Position N 54°58' W 005°01'.

Length 161 m; draft 5.5 m.

Type: Passenger vessel. MMSI: 311404000.

Date/timePositionNaut miles runAvg speedWind from/ knotsBaromVisibWave heightAir tempDewpointWater temp
2019-Jan-23 22:35N 54°58' W 005°01'0 0.0
2019-Jan-23 22:29N 54°58' W 005°01'0 0.0
2019-Jan-23 21:59N 54°58' W 005°01'5 9.7
2019-Jan-23 21:28N 55°01' W 005°07'818.6
2019-Jan-23 21:01N 54°58' W 005°20'1020.6
2019-Jan-23 20:30N 54°54' W 005°37'713.8
2019-Jan-23 20:00N 54°51' W 005°48'0 0.1
2019-Jan-23 19:30N 54°51' W 005°48'0 0.0
2019-Jan-23 19:00N 54°51' W 005°48'0 0.0
2019-Jan-23 18:30N 54°51' W 005°48'3 6.8
2019-Jan-23 18:00N 54°53' W 005°43'917.2
2019-Jan-23 17:31N 54°57' W 005°30'917.0
2019-Jan-23 17:01N 55°00' W 005°16'814.2
2019-Jan-23 16:27N 54°59' W 005°03'2 3.7
2019-Jan-23 15:59N 54°58' W 005°01'0 0.0
2019-Jan-23 15:30N 54°58' W 005°01'5 9.2
2019-Jan-23 14:58N 55°02' W 005°07'919.0
2019-Jan-23 14:31N 54°58' W 005°20'918.0
2019-Jan-23 14:01N 54°55' W 005°35'816.0
2019-Jan-23 13:30N 54°51' W 005°48'0 0.4
2019-Jan-23 12:55N 54°51' W 005°48'0 0.0
2019-Jan-23 12:30N 54°51' W 005°48'5 9.2
2019-Jan-23 12:00N 54°53' W 005°41'917.8
2019-Jan-23 11:30N 54°57' W 005°27'917.8
2019-Jan-23 11:00N 55°01' W 005°13'713.2
2019-Jan-23 10:30N 54°59' W 005°02'1 2.2
2019-Jan-23 09:59N 54°58' W 005°01'0 0.0
2019-Jan-23 09:29N 54°58' W 005°01'5 9.8
2019-Jan-23 08:57N 55°01' W 005°07'716.3
2019-Jan-23 08:31N 54°59' W 005°19'918.2
2019-Jan-23 08:01N 54°55' W 005°33'918.1
2019-Jan-23 07:31N 54°51' W 005°48'1 1.2
2019-Jan-23 07:00N 54°51' W 005°48'0 0.0
2019-Jan-23 06:30N 54°51' W 005°48'0 0.0
2019-Jan-23 06:00N 54°51' W 005°48'5 9.0
2019-Jan-23 05:30N 54°53' W 005°41'917.4
2019-Jan-23 05:00N 54°57' W 005°28'917.5
2019-Jan-23 04:30N 55°01' W 005°14'713.9
2019-Jan-23 04:00N 54°59' W 005°02'1 1.8
2019-Jan-23 03:24N 54°58' W 005°01'0 0.0
2019-Jan-23 02:42N 54°58' W 005°01'0 0.0
2019-Jan-23 02:12N 54°58' W 005°01'0 0.0
2019-Jan-23 02:00N 54°58' W 005°01'5 8.6
2019-Jan-23 01:25N 55°02' W 005°07'819.8
2019-Jan-23 01:01N 54°58' W 005°20'918.6
2019-Jan-23 00:31N 54°54' W 005°34'816.8
2019-Jan-23 00:01N 54°51' W 005°48'0 0.3
2019-Jan-22 23:29N 54°51' W 005°48'0 0.0
2019-Jan-22 22:59N 54°51' W 005°48'0 0.0
2019-Jan-22 22:29N 54°51' W 005°48'0 0.0
2019-Jan-22 22:01N 54°51' W 005°48'713.7
2019-Jan-22 21:30N 54°54' W 005°37'918.4
2019-Jan-22 21:00N 54°58' W 005°23'917.6
2019-Jan-22 20:30N 55°01' W 005°09'611.4
2019-Jan-22 20:00N 54°58' W 005°01'0 0.0
2019-Jan-22 19:30N 54°58' W 005°01'0 0.0
2019-Jan-22 18:54N 54°58' W 005°01'0 0.4
2019-Jan-22 18:30N 54°58' W 005°01'510.5
2019-Jan-22 18:00N 55°01' W 005°08'816.9
2019-Jan-22 17:30N 54°58' W 005°21'918.1
2019-Jan-22 17:00N 54°54' W 005°36'815.7
2019-Jan-22 16:31N 54°51' W 005°48'0 0.2
2019-Jan-22 15:59N 54°51' W 005°48'0 0.0
2019-Jan-22 15:30N 54°51' W 005°48'5 9.6
2019-Jan-22 15:00N 54°54' W 005°41'917.7
2019-Jan-22 14:30N 54°58' W 005°27'816.6
2019-Jan-22 14:01N 55°01' W 005°14'713.6
2019-Jan-22 13:30N 54°59' W 005°03'1 2.4
2019-Jan-22 12:54N 54°58' W 005°01'0 0.0
2019-Jan-22 12:30N 54°58' W 005°01'510.3
2019-Jan-22 12:00N 55°02' W 005°07'917.9
2019-Jan-22 11:31N 54°58' W 005°21'918.2
2019-Jan-22 11:01N 54°55' W 005°36'814.5
2019-Jan-22 10:28N 54°51' W 005°48'0 0.1
2019-Jan-22 09:58N 54°51' W 005°48'0 0.0
2019-Jan-22 09:30N 54°51' W 005°48'4 7.7
2019-Jan-22 09:00N 54°53' W 005°43'1019.6
2019-Jan-22 08:31N 54°57' W 005°27'1019.9
2019-Jan-22 08:01N 55°01' W 005°11'713.1
2019-Jan-22 07:30N 54°58' W 005°02'1 0.8
2019-Jan-22 06:50N 54°58' W 005°01'0 0.0
2019-Jan-22 06:29N 54°58' W 005°01'0 0.0
2019-Jan-22 06:00N 54°58' W 005°01'5 9.3
2019-Jan-22 05:28N 55°02' W 005°07'816.6
2019-Jan-22 05:00N 54°59' W 005°19'917.9
2019-Jan-22 04:30N 54°55' W 005°33'917.8
2019-Jan-22 04:00N 54°52' W 005°48'1 0.6
2019-Jan-22 02:40N 54°51' W 005°48'0 0.0
2019-Jan-22 02:28N 54°51' W 005°48'0 0.0
2019-Jan-22 01:58N 54°51' W 005°48'3 5.8
2019-Jan-22 01:30N 54°53' W 005°44'1020.4
2019-Jan-22 01:01N 54°57' W 005°29'1020.0
2019-Jan-22 00:30N 55°01' W 005°12'713.0
2019-Jan-22 00:00N 54°58' W 005°02'1 1.4
2019-Jan-21 23:21N 54°58' W 005°01'0 0.0
2019-Jan-21 23:00N 54°58' W 005°01'0 0.0
2019-Jan-21 22:21N 54°58' W 005°01'0 0.0
2019-Jan-21 22:00N 54°58' W 005°01'5 8.6
2019-Jan-21 21:24N 55°01' W 005°07'718.5
2019-Jan-21 21:00N 54°59' W 005°19'1020.1
2019-Jan-21 20:30N 54°54' W 005°35'816.6
2019-Jan-21 20:01N 54°51' W 005°48'0 0.2
2019-Jan-21 19:31N 54°51' W 005°48'0 0.0
2019-Jan-21 19:01N 54°51' W 005°48'0 0.0
2019-Jan-21 18:30N 54°51' W 005°48'510.0
2019-Jan-21 18:00N 54°54' W 005°41'918.7
2019-Jan-21 17:30N 54°58' W 005°26'918.8
2019-Jan-21 17:01N 55°01' W 005°11'713.3
2019-Jan-21 16:30N 54°58' W 005°01'0 0.3
2019-Jan-21 16:00N 54°58' W 005°01'0 0.0
2019-Jan-21 15:30N 54°58' W 005°01'5 9.9
2019-Jan-21 15:00N 55°02' W 005°07'918.0
2019-Jan-21 14:31N 54°58' W 005°21'917.9
2019-Jan-21 14:01N 54°54' W 005°35'815.7
2019-Jan-21 13:30N 54°51' W 005°48'0 0.4
2019-Jan-21 12:56N 54°51' W 005°48'0 0.0
2019-Jan-21 12:29N 54°51' W 005°48'5 9.7
2019-Jan-21 12:00N 54°54' W 005°41'917.8
2019-Jan-21 11:30N 54°57' W 005°28'917.1
2019-Jan-21 11:00N 55°01' W 005°14'713.7
2019-Jan-21 10:30N 54°59' W 005°02'1 2.7
2019-Jan-21 10:00N 54°58' W 005°01'0 0.0
2019-Jan-21 09:30N 54°58' W 005°01'510.4
2019-Jan-21 09:00N 55°02' W 005°07'816.5
2019-Jan-21 08:30N 54°58' W 005°20'918.5
2019-Jan-21 08:00N 54°55' W 005°35'816.4
2019-Jan-21 07:30N 54°51' W 005°48'0 0.2
2019-Jan-21 06:58N 54°51' W 005°48'0 0.0
2019-Jan-21 06:28N 54°51' W 005°48'0 0.0
2019-Jan-21 06:00N 54°51' W 005°48'4 8.4
2019-Jan-21 05:30N 54°53' W 005°42'816.5
2019-Jan-21 05:00N 54°57' W 005°29'816.8
2019-Jan-21 04:30N 55°00' W 005°16'714.0
2019-Jan-21 04:00N 54°59' W 005°03'2 3.5
2019-Jan-21 03:25N 54°58' W 005°01'0 0.0
2019-Jan-21 02:58N 54°58' W 005°01'0 0.0
2019-Jan-21 02:28N 54°58' W 005°01'0 0.0
2019-Jan-21 01:59N 54°58' W 005°01'5 9.0
2019-Jan-21 01:26N 55°02' W 005°06'818.4
2019-Jan-21 01:01N 54°59' W 005°19'918.2
2019-Jan-21 00:31N 54°55' W 005°34'917.3
2019-Jan-21 00:00N 54°52' W 005°47'1 1.8
2019-Jan-20 23:30N 54°51' W 005°48'0 0.0
2019-Jan-20 23:00N 54°51' W 005°48'0 0.0
2019-Jan-20 22:30N 54°51' W 005°48'0 0.0
2019-Jan-20 22:00N 54°51' W 005°48'3 6.8
2019-Jan-20 21:30N 54°53' W 005°43'917.4
2019-Jan-20 21:00N 54°57' W 005°29'816.7
2019-Jan-20 20:30N 54°60' W 005°16'813.7
2019-Jan-20 19:57N 54°59' W 005°03'2 3.9
2019-Jan-20 19:29N 54°58' W 005°01'0 0.0
2019-Jan-20 18:59N 54°58' W 005°01'0 0.1
2019-Jan-20 18:30N 54°58' W 005°01'510.1
2019-Jan-20 18:00N 55°02' W 005°07'816.1
2019-Jan-20 17:30N 54°58' W 005°20'917.4
2019-Jan-20 17:00N 54°55' W 005°33'917.3
2019-Jan-20 16:30N 54°52' W 005°47'1 1.6
2019-Jan-20 15:55N 54°51' W 005°48'0 0.0
2019-Jan-20 15:28N 54°51' W 005°48'3 7.5
2019-Jan-20 15:00N 54°53' W 005°43'917.5
2019-Jan-20 14:30N 54°57' W 005°30'917.0
2019-Jan-20 14:00N 55°00' W 005°16'714.0
2019-Jan-20 13:28N 54°59' W 005°03'2 3.7
2019-Jan-20 12:58N 54°58' W 005°01'0 0.0
2019-Jan-20 12:25N 54°58' W 005°01'0 0.0
2019-Jan-20 11:52N 54°58' W 005°01'0 0.0
2019-Jan-20 11:25N 54°58' W 005°01'0 0.0
2019-Jan-20 10:52N 54°58' W 005°01'0 0.0
2019-Jan-20 10:01N 54°58' W 005°01'0 0.0
2019-Jan-20 09:37N 54°58' W 005°01'0 0.0
2019-Jan-20 09:30N 54°58' W 005°01'5 9.2
2019-Jan-20 08:57N 55°02' W 005°07'716.7
2019-Jan-20 08:30N 54°59' W 005°19'917.7
2019-Jan-20 08:00N 54°55' W 005°33'918.2
2019-Jan-20 07:30N 54°52' W 005°48'1 1.5
2019-Jan-20 06:58N 54°51' W 005°48'0 0.0
2019-Jan-20 06:22N 54°51' W 005°48'0 0.0
2019-Jan-20 05:58N 54°51' W 005°48'0 0.0
2019-Jan-20 05:28N 54°51' W 005°48'0 0.0
2019-Jan-20 04:58N 54°51' W 005°48'0 0.0
2019-Jan-20 04:28N 54°51' W 005°48'0 0.0
2019-Jan-20 03:58N 54°51' W 005°48'0 0.0
2019-Jan-20 03:28N 54°51' W 005°48'0 0.0
2019-Jan-20 02:58N 54°51' W 005°48'0 0.0
2019-Jan-20 02:28N 54°51' W 005°48'0 0.0
2019-Jan-20 01:58N 54°51' W 005°48'0 0.0
2019-Jan-20 01:28N 54°51' W 005°48'0 0.0
2019-Jan-20 00:58N 54°51' W 005°48'0 0.0
2019-Jan-20 00:28N 54°51' W 005°48'0 0.0
2019-Jan-19 23:52N 54°51' W 005°48'0 0.0
2019-Jan-19 23:28N 54°51' W 005°48'0 0.0
2019-Jan-19 22:58N 54°51' W 005°48'0 0.0
2019-Jan-19 22:28N 54°51' W 005°48'0 0.0
2019-Jan-19 21:58N 54°51' W 005°48'1 2.9
2019-Jan-19 21:30N 54°52' W 005°47'918.2
2019-Jan-19 21:00N 54°56' W 005°33'918.1
2019-Jan-19 20:30N 54°60' W 005°19'914.8
2019-Jan-19 19:54N 54°59' W 005°03'2 2.6
2019-Jan-19 19:14N 54°58' W 005°01'0 0.0
2019-Jan-19 18:59N 54°58' W 005°01'0 0.0
2019-Jan-19 18:30N 54°58' W 005°01'5 8.4
2019-Jan-19 17:52N 55°01' W 005°07'616.3
2019-Jan-19 17:31N 54°59' W 005°16'918.1
2019-Jan-19 17:01N 54°55' W 005°31'1018.6
2019-Jan-19 16:30N 54°52' W 005°47'1 2.9
2019-Jan-19 15:59N 54°51' W 005°48'0 0.0
2019-Jan-19 15:29N 54°51' W 005°48'3 5.3
2019-Jan-19 15:00N 54°52' W 005°45'917.7
2019-Jan-19 14:30N 54°56' W 005°31'917.4
2019-Jan-19 14:00N 55°00' W 005°17'814.5
2019-Jan-19 13:26N 54°59' W 005°03'2 3.1
2019-Jan-19 12:55N 54°58' W 005°01'0 0.0
2019-Jan-19 12:30N 54°58' W 005°01'5 8.6
2019-Jan-19 11:55N 55°02' W 005°06'718.0
2019-Jan-19 11:30N 54°59' W 005°18'917.6
2019-Jan-19 11:00N 54°55' W 005°32'917.0
2019-Jan-19 10:30N 54°52' W 005°47'2 3.2
2019-Jan-19 10:00N 54°51' W 005°48'0 0.0
2019-Jan-19 09:30N 54°51' W 005°48'3 5.6
2019-Jan-19 09:00N 54°53' W 005°44'917.7
2019-Jan-19 08:30N 54°56' W 005°30'917.6
2019-Jan-19 08:00N 55°00' W 005°16'814.3
2019-Jan-19 07:28N 54°59' W 005°03'2 2.1
2019-Jan-19 06:36N 54°58' W 005°01'0 0.0
2019-Jan-19 06:03N 54°58' W 005°01'0 0.1
2019-Jan-19 06:00N 54°58' W 005°01'5 9.4
2019-Jan-19 05:29N 55°01' W 005°06'816.0
2019-Jan-19 05:00N 54°59' W 005°19'816.4
2019-Jan-19 04:31N 54°55' W 005°32'917.4
2019-Jan-19 04:00N 54°52' W 005°46'2 3.4
2019-Jan-19 03:29N 54°51' W 005°48'0 0.0
2019-Jan-19 02:59N 54°51' W 005°48'0 0.0
2019-Jan-19 02:29N 54°51' W 005°48'0 0.0
2019-Jan-19 01:59N 54°51' W 005°48'2 5.1
2019-Jan-19 01:30N 54°52' W 005°45'917.6
2019-Jan-19 01:01N 54°57' W 005°31'816.9
2019-Jan-19 00:30N 55°00' W 005°18'914.5
2019-Jan-18 23:55N 54°59' W 005°03'2 3.2
2019-Jan-18 23:23N 54°58' W 005°01'0 0.0
2019-Jan-18 22:59N 54°58' W 005°01'0 0.0
2019-Jan-18 22:29N 54°58' W 005°01'0 0.0
2019-Jan-18 21:59N 54°58' W 005°01'510.7
2019-Jan-18 21:30N 55°02' W 005°07'817.0
2019-Jan-18 21:01N 54°59' W 005°21'917.3
2019-Jan-18 20:30N 54°55' W 005°34'816.8
2019-Jan-18 20:00N 54°51' W 005°48'0 0.6
2019-Jan-18 19:28N 54°51' W 005°48'0 0.0
2019-Jan-18 18:58N 54°51' W 005°48'0 0.0
2019-Jan-18 18:31N 54°51' W 005°48'611.8
2019-Jan-18 18:00N 54°54' W 005°39'1019.3
2019-Jan-18 17:30N 54°58' W 005°24'1020.0
2019-Jan-18 17:00N 55°02' W 005°07'510.7
2019-Jan-18 16:31N 54°58' W 005°01'0 0.0
2019-Jan-18 15:58N 54°58' W 005°01'0 0.0
2019-Jan-18 15:31N 54°58' W 005°01'5 8.1
2019-Jan-18 14:53N 55°02' W 005°07'719.1
2019-Jan-18 14:30N 54°59' W 005°19'1019.7
2019-Jan-18 14:00N 54°55' W 005°34'917.6
2019-Jan-18 13:31N 54°51' W 005°48'0 0.3
2019-Jan-18 13:00N 54°51' W 005°48'0 0.0
2019-Jan-18 12:30N 54°51' W 005°48'612.9
2019-Jan-18 12:00N 54°55' W 005°39'817.0
2019-Jan-18 11:30N 54°60' W 005°27'816.2
2019-Jan-18 11:00N 55°03' W 005°14'815.5
2019-Jan-18 10:30N 54°59' W 005°03'1 2.6
2019-Jan-18 09:58N 54°58' W 005°01'0 0.0
2019-Jan-18 09:29N 54°58' W 005°01'5 9.1
2019-Jan-18 08:55N 55°02' W 005°07'818.3
2019-Jan-18 08:30N 54°59' W 005°19'917.1
2019-Jan-18 08:00N 54°55' W 005°32'918.0
2019-Jan-18 07:30N 54°52' W 005°47'1 2.4
2019-Jan-18 07:00N 54°51' W 005°48'0 0.0
2019-Jan-18 06:30N 54°51' W 005°48'0 0.0
2019-Jan-18 06:00N 54°51' W 005°48'4 7.8
2019-Jan-18 05:30N 54°53' W 005°42'816.8
2019-Jan-18 05:00N 54°57' W 005°30'917.6
2019-Jan-18 04:30N 55°01' W 005°16'714.5
2019-Jan-18 04:00N 54°59' W 005°03'2 4.0
2019-Jan-18 03:30N 54°58' W 005°01'0 0.0
2019-Jan-18 03:00N 54°58' W 005°01'0 0.0
2019-Jan-18 02:27N 54°58' W 005°01'0 0.0
2019-Jan-18 02:01N 54°58' W 005°01'5 9.3
2019-Jan-18 01:28N 55°02' W 005°06'817.5
2019-Jan-18 01:00N 54°59' W 005°20'918.2
2019-Jan-18 00:30N 54°55' W 005°34'917.0
2019-Jan-18 00:00N 54°51' W 005°48'0 0.7
2019-Jan-17 23:30N 54°51' W 005°48'0 0.0
2019-Jan-17 23:00N 54°51' W 005°48'0 0.0
2019-Jan-17 22:30N 54°51' W 005°48'0 0.0
2019-Jan-17 22:00N 54°51' W 005°48'4 8.8
2019-Jan-17 21:30N 54°53' W 005°42'917.2
2019-Jan-17 21:00N 54°57' W 005°28'917.4
2019-Jan-17 20:30N 55°01' W 005°14'712.9
2019-Jan-17 19:58N 54°59' W 005°03'2 2.4
2019-Jan-17 19:18N 54°58' W 005°01'0 0.0
2019-Jan-17 18:36N 54°58' W 005°01'0 0.0
2019-Jan-17 18:26N 54°58' W 005°01'5 9.5
2019-Jan-17 17:54N 55°01' W 005°07'719.2
2019-Jan-17 17:30N 54°59' W 005°19'1020.5
2019-Jan-17 17:00N 54°54' W 005°35'816.1
2019-Jan-17 16:31N 54°51' W 005°48'0 0.1
2019-Jan-17 15:58N 54°51' W 005°48'0 0.0
2019-Jan-17 15:30N 54°51' W 005°48'611.3
2019-Jan-17 15:00N 54°54' W 005°40'917.7
2019-Jan-17 14:31N 54°58' W 005°26'918.2
2019-Jan-17 14:00N 55°01' W 005°11'612.8
2019-Jan-17 13:30N 54°58' W 005°02'0 0.8
2019-Jan-17 12:56N 54°58' W 005°01'0 0.0
2019-Jan-17 12:30N 54°58' W 005°01'5 9.2
2019-Jan-17 11:59N 55°02' W 005°06'920.0
2019-Jan-17 11:30N 54°58' W 005°21'917.7
2019-Jan-17 11:00N 54°54' W 005°36'815.6
2019-Jan-17 10:30N 54°51' W 005°48'0 0.2
2019-Jan-17 10:00N 54°51' W 005°48'0 0.0
2019-Jan-17 09:30N 54°51' W 005°48'611.4
2019-Jan-17 09:00N 54°54' W 005°40'917.9
2019-Jan-17 08:31N 54°58' W 005°26'917.4
2019-Jan-17 08:00N 55°01' W 005°12'713.2
2019-Jan-17 07:30N 54°58' W 005°02'0 0.8
2019-Jan-17 07:00N 54°58' W 005°01'0 0.0
2019-Jan-17 06:30N 54°58' W 005°01'0 0.0
2019-Jan-17 06:01N 54°58' W 005°01'5 9.6
2019-Jan-17 05:29N 55°02' W 005°07'918.6
2019-Jan-17 05:00N 54°59' W 005°21'1019.0
2019-Jan-17 04:30N 54°54' W 005°36'815.4
2019-Jan-17 04:01N 54°51' W 005°48'0 0.0
2019-Jan-17 02:59N 54°51' W 005°48'0 0.0
2019-Jan-17 02:29N 54°51' W 005°48'0 0.0
2019-Jan-17 02:00N 54°51' W 005°48'4 9.2
2019-Jan-17 01:30N 54°53' W 005°41'917.6
2019-Jan-17 01:01N 54°58' W 005°29'917.5
2019-Jan-17 00:30N 55°01' W 005°14'713.4
2019-Jan-17 00:00N 54°59' W 005°03'2 3.1
2019-Jan-16 23:28N 54°58' W 005°01'0 0.0
2019-Jan-16 22:52N 54°58' W 005°01'0 0.0
2019-Jan-16 22:25N 54°58' W 005°01'0 0.0
2019-Jan-16 22:00N 54°58' W 005°01'5 9.4
2019-Jan-16 21:28N 55°02' W 005°07'817.6
2019-Jan-16 21:00N 54°58' W 005°20'917.6
2019-Jan-16 20:30N 54°55' W 005°34'917.2
2019-Jan-16 20:00N 54°52' W 005°48'1 1.5
2019-Jan-16 19:29N 54°51' W 005°48'0 0.0
2019-Jan-16 18:59N 54°51' W 005°48'0 0.0
2019-Jan-16 18:29N 54°51' W 005°48'5 9.6
2019-Jan-16 18:00N 54°53' W 005°41'917.8
2019-Jan-16 17:30N 54°57' W 005°27'917.8
2019-Jan-16 17:00N 55°01' W 005°13'713.7
2019-Jan-16 16:30N 54°58' W 005°02'1 1.7
2019-Jan-16 15:56N 54°58' W 005°01'0 0.0
2019-Jan-16 15:30N 54°58' W 005°01'5 9.5
2019-Jan-16 14:59N 55°02' W 005°06'817.0
2019-Jan-16 14:30N 54°58' W 005°19'918.6
2019-Jan-16 14:00N 54°55' W 005°34'917.2
2019-Jan-16 13:30N 54°51' W 005°48'0 0.3
2019-Jan-16 12:59N 54°51' W 005°48'0 0.0
2019-Jan-16 12:30N 54°51' W 005°48'510.9
2019-Jan-16 12:01N 54°54' W 005°41'917.1
2019-Jan-16 11:31N 54°58' W 005°27'817.0
2019-Jan-16 11:00N 55°01' W 005°13'713.6
2019-Jan-16 10:30N 54°59' W 005°02'1 1.6
2019-Jan-16 09:50N 54°58' W 005°01'0 0.0
2019-Jan-16 09:26N 54°58' W 005°01'510.5
2019-Jan-16 08:58N 55°02' W 005°06'818.2
2019-Jan-16 08:30N 54°58' W 005°20'918.2
2019-Jan-16 08:01N 54°54' W 005°34'917.1
2019-Jan-16 07:31N 54°51' W 005°48'0 0.3
2019-Jan-16 06:58N 54°51' W 005°48'0 0.0
2019-Jan-16 06:28N 54°51' W 005°48'0 0.0
2019-Jan-16 05:59N 54°51' W 005°48'4 8.2
2019-Jan-16 05:31N 54°53' W 005°42'917.6
2019-Jan-16 05:01N 54°57' W 005°29'917.4
2019-Jan-16 04:31N 55°01' W 005°15'713.5
2019-Jan-16 04:00N 54°59' W 005°03'2 3.6
2019-Jan-16 03:28N 54°58' W 005°01'0 0.0
2019-Jan-16 02:58N 54°58' W 005°01'0 0.0
2019-Jan-16 02:25N 54°58' W 005°01'0 0.0
2019-Jan-16 01:59N 54°58' W 005°01'5 9.5
2019-Jan-16 01:28N 55°02' W 005°07'817.5
2019-Jan-16 01:01N 54°58' W 005°19'918.6
2019-Jan-16 00:30N 54°55' W 005°34'917.0
2019-Jan-16 00:00N 54°51' W 005°48'0 0.3
2019-Jan-15 23:28N 54°51' W 005°48'0 0.0
2019-Jan-15 22:58N 54°51' W 005°48'0 0.0
2019-Jan-15 22:28N 54°51' W 005°48'0 0.0
2019-Jan-15 21:58N 54°51' W 005°48'5 9.7
2019-Jan-15 21:30N 54°53' W 005°41'917.4
2019-Jan-15 21:00N 54°57' W 005°28'817.0
2019-Jan-15 20:30N 55°01' W 005°14'713.3
2019-Jan-15 20:00N 54°59' W 005°03'2 2.9
2019-Jan-15 19:25N 54°58' W 005°01'0 0.0
2019-Jan-15 18:49N 54°58' W 005°01'0 0.0
2019-Jan-15 18:30N 54°58' W 005°01'510.0
2019-Jan-15 18:00N 55°02' W 005°06'917.4
2019-Jan-15 17:30N 54°58' W 005°20'917.8
2019-Jan-15 17:00N 54°55' W 005°34'916.9
2019-Jan-15 16:30N 54°51' W 005°48'0 0.4
2019-Jan-15 15:58N 54°51' W 005°48'0 0.0
2019-Jan-15 15:29N 54°51' W 005°48'5 9.9
2019-Jan-15 15:00N 54°53' W 005°41'817.0
2019-Jan-15 14:30N 54°57' W 005°28'917.1
2019-Jan-15 14:00N 55°01' W 005°14'713.6
2019-Jan-15 13:30N 54°59' W 005°03'1 3.0
2019-Jan-15 13:00N 54°58' W 005°01'0 0.0
2019-Jan-15 12:29N 54°58' W 005°01'5 9.8
2019-Jan-15 11:59N 55°02' W 005°06'1020.1
2019-Jan-15 11:31N 54°58' W 005°22'1019.8
2019-Jan-15 11:00N 54°54' W 005°38'713.1
2019-Jan-15 10:30N 54°51' W 005°48'0 0.0
2019-Jan-15 10:00N 54°51' W 005°48'0 0.0
2019-Jan-15 09:31N 54°51' W 005°48'612.3
2019-Jan-15 09:00N 54°54' W 005°39'917.7
2019-Jan-15 08:30N 54°58' W 005°25'917.3
2019-Jan-15 08:00N 55°01' W 005°11'713.4
2019-Jan-15 07:30N 54°58' W 005°01'0 0.1
2019-Jan-15 06:53N 54°58' W 005°01'0 0.0
2019-Jan-15 06:29N 54°58' W 005°01'0 0.0
2019-Jan-15 06:00N 54°58' W 005°01'511.0
2019-Jan-15 05:30N 55°02' W 005°08'918.0
2019-Jan-15 05:00N 54°58' W 005°22'918.1
2019-Jan-15 04:30N 54°54' W 005°36'714.7
2019-Jan-15 04:00N 54°51' W 005°48'0 0.2
2019-Jan-15 03:27N 54°51' W 005°48'0 0.0
2019-Jan-15 02:57N 54°51' W 005°48'0 0.0
2019-Jan-15 02:27N 54°51' W 005°48'0 0.0
2019-Jan-15 02:00N 54°51' W 005°48'510.1
2019-Jan-15 01:30N 54°54' W 005°41'816.8
2019-Jan-15 01:00N 54°57' W 005°27'917.3
2019-Jan-15 00:30N 55°01' W 005°14'713.5
2019-Jan-15 00:00N 54°59' W 005°02'1 1.9
2019-Jan-14 23:18N 54°58' W 005°01'0 0.0
2019-Jan-14 23:00N 54°58' W 005°01'0 0.0
2019-Jan-14 22:30N 54°58' W 005°01'0 0.2
2019-Jan-14 22:00N 54°58' W 005°01'611.5
2019-Jan-14 21:30N 55°02' W 005°09'1020.5
2019-Jan-14 21:01N 54°57' W 005°25'1020.5
2019-Jan-14 20:31N 54°53' W 005°41'5 9.0
2019-Jan-14 20:00N 54°51' W 005°48'0 0.0
2019-Jan-14 19:29N 54°51' W 005°48'0 0.0
2019-Jan-14 18:56N 54°51' W 005°48'0 0.0
2019-Jan-14 18:29N 54°51' W 005°48'1 1.9
2019-Jan-14 18:00N 54°52' W 005°47'1019.8
2019-Jan-14 17:30N 54°56' W 005°32'1020.4
2019-Jan-14 17:00N 55°00' W 005°16'815.6
2019-Jan-14 16:30N 54°59' W 005°03'1 1.9
2019-Jan-14 15:45N 54°58' W 005°01'0 0.0
2019-Jan-14 15:30N 54°58' W 005°01'5 9.9
2019-Jan-14 15:00N 55°01' W 005°06'1019.6
2019-Jan-14 14:30N 54°58' W 005°22'1020.2
2019-Jan-14 14:00N 54°54' W 005°38'612.4
2019-Jan-14 13:30N 54°51' W 005°48'0 0.0
2019-Jan-14 12:59N 54°51' W 005°48'0 0.0
2019-Jan-14 12:31N 54°51' W 005°48'612.7
2019-Jan-14 12:00N 54°54' W 005°38'816.9
2019-Jan-14 11:30N 54°58' W 005°25'917.2
2019-Jan-14 11:00N 55°01' W 005°11'612.8
2019-Jan-14 10:30N 54°58' W 005°02'0 0.7
2019-Jan-14 09:50N 54°58' W 005°01'0 0.2
2019-Jan-14 09:30N 54°58' W 005°01'611.3
2019-Jan-14 09:00N 55°01' W 005°08'917.5
2019-Jan-14 08:31N 54°58' W 005°22'918.0
2019-Jan-14 08:00N 54°54' W 005°37'714.3
2019-Jan-14 07:30N 54°51' W 005°48'0 0.2
2019-Jan-14 06:58N 54°51' W 005°48'0 0.0
2019-Jan-14 06:28N 54°51' W 005°48'0 0.0
2019-Jan-14 05:55N 54°51' W 005°48'2 5.6
2019-Jan-14 05:31N 54°52' W 005°45'1020.2
2019-Jan-14 05:00N 54°57' W 005°30'1019.7
2019-Jan-14 04:30N 55°01' W 005°14'713.5
2019-Jan-14 04:00N 54°59' W 005°03'1 2.4
2019-Jan-14 03:24N 54°58' W 005°01'0 0.0
2019-Jan-14 02:57N 54°58' W 005°01'0 0.0
2019-Jan-14 02:27N 54°58' W 005°01'0 0.1
2019-Jan-14 02:00N 54°58' W 005°01'612.2
2019-Jan-14 01:31N 55°02' W 005°09'816.0
2019-Jan-14 01:00N 54°56' W 005°20'917.8
2019-Jan-14 00:30N 54°53' W 005°35'815.9
2019-Jan-14 00:01N 54°51' W 005°48'0 0.2
2019-Jan-13 23:29N 54°51' W 005°48'0 0.0
2019-Jan-13 22:59N 54°51' W 005°48'  

Dump ship's entire track history